createdAt,value
2018-04-06T00:05:34.332Z,6.71
2018-04-06T00:11:25.104Z,7.08
2018-04-06T00:17:15.951Z,6.69
2018-04-06T00:23:06.662Z,7.2
2018-04-06T00:28:57.516Z,7.72
2018-04-06T00:34:48.231Z,7.48
2018-04-06T00:40:39.034Z,7.25
2018-04-06T00:46:29.805Z,7.2
2018-04-06T00:52:20.571Z,7.67
2018-04-06T00:58:11.393Z,7.44
2018-04-06T01:04:02.131Z,6.91
2018-04-06T01:09:52.910Z,7.39
2018-04-06T01:15:43.737Z,8.61
2018-04-06T01:21:34.475Z,8.44
2018-04-06T01:27:25.247Z,8.4
2018-04-06T01:33:16.038Z,8.32
2018-04-06T01:39:06.826Z,9.43
2018-04-06T01:44:57.600Z,8.66
2018-04-06T01:50:48.407Z,8.54
2018-04-06T01:56:39.182Z,9.42
2018-04-06T02:02:30.000Z,8.61
2018-04-06T02:08:20.808Z,7.4
2018-04-06T02:14:11.527Z,8.79
2018-04-06T02:20:02.384Z,9.22
2018-04-06T02:25:53.103Z,8
2018-04-06T02:31:43.911Z,8.99
2018-04-06T02:37:34.686Z,9.61
2018-04-06T02:43:25.459Z,8.73
2018-04-06T02:49:16.232Z,8.59
2018-04-06T02:55:07.029Z,9.01
2018-04-06T03:00:57.806Z,9.12
2018-04-06T03:06:48.633Z,10
2018-04-06T03:12:39.380Z,9.41
2018-04-06T03:18:30.202Z,10.86
2018-04-06T03:24:20.947Z,10.31
2018-04-06T03:30:11.798Z,10.78
2018-04-06T03:36:02.513Z,10.86
2018-04-06T03:41:53.321Z,10.98
2018-04-06T03:47:44.148Z,11.76
2018-04-06T03:53:34.882Z,10.91
2018-04-06T03:59:25.648Z,10.7
2018-04-06T04:05:16.437Z,10.49
2018-04-06T04:11:07.228Z,10.2
2018-04-06T04:16:57.997Z,9.28
2018-04-06T04:22:48.790Z,8.92
2018-04-06T04:28:39.554Z,8.95
2018-04-06T04:34:30.401Z,10.31
2018-04-06T04:40:21.150Z,9.62
2018-04-06T04:46:11.998Z,9.64
2018-04-06T04:52:02.692Z,8.76
2018-04-06T04:57:53.492Z,9.52
2018-04-06T05:03:44.232Z,9.91
2018-04-06T05:09:35.047Z,8.96
2018-04-06T05:15:25.809Z,9.1
2018-04-06T05:21:16.544Z,9.27
2018-04-06T05:27:07.344Z,9.82
2018-04-06T05:32:58.129Z,13.37
2018-04-06T05:38:48.959Z,9.06
2018-04-06T05:44:39.643Z,9.95
2018-04-06T05:50:30.432Z,24.01
2018-04-06T05:56:21.206Z,36.69
2018-04-06T06:02:11.956Z,46.76
2018-04-06T06:08:02.746Z,19.89
2018-04-06T06:13:53.517Z,25.2
2018-04-06T06:19:44.323Z,52.34
2018-04-06T06:25:35.090Z,44.98
2018-04-06T06:31:25.832Z,29.87
2018-04-06T06:37:16.628Z,17.04
2018-04-06T06:43:07.490Z,15.73
2018-04-06T06:48:58.238Z,20.82
2018-04-06T06:54:48.988Z,16.83
2018-04-06T07:00:39.779Z,13.29
2018-04-06T07:06:30.602Z,13.69
2018-04-06T07:12:21.374Z,14.04
2018-04-06T07:18:12.187Z,13.88
2018-04-06T07:24:02.924Z,16.76
2018-04-06T07:29:53.704Z,16.12
2018-04-06T07:35:44.527Z,16.73
2018-04-06T07:41:35.328Z,19.14
2018-04-06T07:47:26.182Z,24.76
2018-04-06T07:53:16.930Z,26.6
2018-04-06T07:59:07.772Z,24.9
2018-04-06T08:04:58.522Z,21.82
2018-04-06T08:10:49.314Z,24.11
2018-04-06T08:16:40.124Z,23.91
2018-04-06T08:22:30.945Z,21.63
2018-04-06T08:28:21.741Z,20.1
2018-04-06T08:34:12.560Z,19.38
2018-04-06T08:40:03.370Z,16.42
2018-04-06T08:45:54.265Z,15.09
2018-04-06T08:51:45.061Z,13.32
2018-04-06T08:57:35.863Z,13.74
2018-04-06T09:03:26.730Z,12.24
2018-04-06T09:09:17.583Z,12.67
2018-04-06T09:15:08.401Z,13.05
2018-04-06T09:20:59.254Z,12.79
2018-04-06T09:26:50.131Z,12.51
2018-04-06T09:32:41.019Z,12.9
2018-04-06T09:38:31.806Z,13
2018-04-06T09:44:22.685Z,12.68
2018-04-06T09:50:13.551Z,12.15
2018-04-06T09:56:04.461Z,14.68
2018-04-06T10:01:55.296Z,13.79
2018-04-06T10:07:46.174Z,15.43
2018-04-06T10:13:37.117Z,14.71
2018-04-06T10:19:27.960Z,11.31
2018-04-06T10:25:18.925Z,9.95
2018-04-06T10:31:09.771Z,10.97
2018-04-06T10:37:00.636Z,11.4
2018-04-06T10:42:51.552Z,11.09
2018-04-06T10:48:42.456Z,11.68
2018-04-06T10:54:33.369Z,9.71
2018-04-06T11:00:24.278Z,10.08
2018-04-06T11:06:15.121Z,9.19
2018-04-06T11:12:06.024Z,8.85
2018-04-06T11:17:56.872Z,7.91
2018-04-06T11:23:47.644Z,8.77
2018-04-06T11:29:38.493Z,8.08
2018-04-06T11:35:29.326Z,8.53
2018-04-06T11:41:20.157Z,8.86
2018-04-06T11:47:10.947Z,7.66
2018-04-06T11:53:01.882Z,7.85
2018-04-06T11:58:52.632Z,5.91
2018-04-06T12:04:43.458Z,6.21
2018-04-06T12:10:34.363Z,6.75
2018-04-06T12:16:25.173Z,7.08
2018-04-06T12:22:15.996Z,7.16
2018-04-06T12:28:06.860Z,7.5
2018-04-06T12:33:57.675Z,8.63
2018-04-06T12:39:48.502Z,9.69
2018-04-06T12:45:39.362Z,9.53
2018-04-06T12:51:30.189Z,5.93
2018-04-06T12:57:21.036Z,8.1
2018-04-06T13:03:11.870Z,7.71
2018-04-06T13:09:02.698Z,6.56
2018-04-06T13:14:53.557Z,5.56
2018-04-06T13:20:44.431Z,4.49
2018-04-06T13:26:35.282Z,3.76
2018-04-06T13:32:26.069Z,3.74
2018-04-06T13:38:16.967Z,4.15
2018-04-06T13:44:07.766Z,3.45
2018-04-06T13:49:58.687Z,3.17
2018-04-06T13:55:49.610Z,2.72
2018-04-06T14:01:40.497Z,2.66
2018-04-06T14:07:31.391Z,2.72
2018-04-06T14:13:22.307Z,5.01
2018-04-06T14:19:13.192Z,2.84
2018-04-06T14:25:04.094Z,3.1
2018-04-06T14:30:54.970Z,3.69
2018-04-06T14:36:45.883Z,2.73
2018-04-06T14:42:36.847Z,2.62
2018-04-06T14:48:27.661Z,2.83
2018-04-06T14:54:18.570Z,2.69
2018-04-06T15:00:09.467Z,3.09
2018-04-06T15:06:00.327Z,3.25
2018-04-06T15:11:51.262Z,3.24
2018-04-06T15:17:42.097Z,3.78
2018-04-06T15:23:33.010Z,3.62
2018-04-06T15:29:23.880Z,4.3
2018-04-06T15:35:14.782Z,3.21
2018-04-06T15:41:05.665Z,3.73
2018-04-06T15:46:56.568Z,5.36
2018-04-06T15:52:47.454Z,3.27
2018-04-06T15:58:38.323Z,3.67
2018-04-06T16:04:29.187Z,3.61
2018-04-06T16:10:20.042Z,3.63
2018-04-06T16:16:10.959Z,3
2018-04-06T16:22:01.819Z,3.3
2018-04-06T16:27:52.678Z,3.28
2018-04-06T16:33:43.557Z,3.91
2018-04-06T16:39:34.424Z,3.84
2018-04-06T16:45:25.290Z,5.09
2018-04-06T16:51:16.155Z,4.34
2018-04-06T16:57:07.030Z,4.45
2018-04-06T17:02:57.898Z,4.94
2018-04-06T17:08:48.811Z,5.46
2018-04-06T17:14:39.618Z,4.95
2018-04-06T17:20:30.496Z,4.32
2018-04-06T17:26:21.355Z,4.99
2018-04-06T17:32:12.241Z,6.72
2018-04-06T17:38:03.127Z,5.67
2018-04-06T17:43:53.913Z,4.66
2018-04-06T17:49:44.824Z,4.73
2018-04-06T17:55:35.646Z,4.06
2018-04-06T18:01:26.498Z,5.22
2018-04-06T18:07:17.354Z,5.31
2018-04-06T18:13:08.200Z,5.85
2018-04-06T18:18:59.062Z,5.64
2018-04-06T18:24:49.882Z,6.11
2018-04-06T18:30:40.723Z,5.78
2018-04-06T18:36:31.591Z,5.85
2018-04-06T18:42:22.427Z,5.72
2018-04-06T18:48:13.294Z,7.1
2018-04-06T18:54:04.129Z,7.43
2018-04-06T18:59:54.915Z,6.3
2018-04-06T19:05:45.796Z,8.04
2018-04-06T19:11:36.604Z,7.59
2018-04-06T19:17:27.420Z,9.69
2018-04-06T19:23:18.259Z,8.75
2018-04-06T19:29:09.316Z,8.64
2018-04-06T19:34:59.957Z,9.84
2018-04-06T19:40:50.783Z,10.5
2018-04-06T19:46:41.612Z,10.35
2018-04-06T19:52:32.433Z,9.53
2018-04-06T19:58:23.244Z,10.16
2018-04-06T20:04:14.129Z,10.01
2018-04-06T20:10:04.922Z,10.1
2018-04-06T20:15:55.745Z,10.89
2018-04-06T20:21:46.606Z,11.68
2018-04-06T20:27:37.396Z,9.22
2018-04-06T20:33:28.260Z,7.76
2018-04-06T20:39:19.084Z,7.36
2018-04-06T20:45:09.920Z,5.55
2018-04-06T20:51:00.735Z,5.16
2018-04-06T20:56:51.612Z,5.44
2018-04-06T21:02:42.441Z,11.31
2018-04-06T21:08:33.264Z,13.84
2018-04-06T21:14:24.146Z,11.92
2018-04-06T21:20:14.904Z,14.58
2018-04-06T21:26:05.714Z,12.13
2018-04-06T21:31:56.585Z,11.15
2018-04-06T21:37:47.466Z,11.14
2018-04-06T21:43:38.188Z,8.28
2018-04-06T21:49:29.018Z,7.37
2018-04-06T21:55:19.821Z,9.71
2018-04-06T22:01:10.658Z,7.65
2018-04-06T22:07:01.495Z,7.26
2018-04-06T22:12:52.298Z,6.39
2018-04-06T22:18:43.104Z,7.44
2018-04-06T22:24:33.888Z,7.02
2018-04-06T22:30:24.736Z,6.91
2018-04-06T22:36:15.562Z,8.04
2018-04-06T22:42:06.362Z,7.33
2018-04-06T22:47:57.156Z,6.89
2018-04-06T22:53:47.980Z,7.09
2018-04-06T22:59:38.795Z,7.88
2018-04-06T23:05:29.626Z,6.17
2018-04-06T23:11:20.452Z,6.93
2018-04-06T23:17:11.214Z,6.5
2018-04-06T23:23:02.020Z,6.29
2018-04-06T23:28:52.825Z,5.15
2018-04-06T23:34:43.686Z,4.56
2018-04-06T23:40:34.438Z,4.82
2018-04-06T23:46:25.253Z,4.55
2018-04-06T23:52:16.076Z,4.09
2018-04-06T23:58:06.913Z,4.68
